Messwerte Abuja

Temperatur

Temperatur
°C
1594522800 4.00 4.00 24
1594526400 5.00 5.00
1594530000 6.00 6.00 24
1594533600 7.00 7.00 24
1594537200 8.00 8.00 24
1594540800 9.00 9.00 25
1594544400 10.00 10.00 26
1594548000 11.00 11.00 27
1594551600 12.00 12.00 27
1594555200 13.00 13.00 28
1594558800 14.00 14.00 28
1594562400 15.00 15.00 28
1594566000 16.00 16.00 28
1594569600 17.00 17.00 27
1594573200 18.00 18.00
1594576800 19.00 19.00 27
1594580400 20.00 20.00 26
1594584000 21.00 21.00 25
1594587600 22.00 22.00 25
1594591200 23.00 23.00 24
1594594800 0.00 0.00
1594598400 1.00 1.00 24
1594602000 2.00 2.00 24
1594605600 3.00 3.00 24

Aktuellste Messwerte

Wettercharakter
Wetter: meist klar
Temperatur
24 °C
Feuchtigkeit
94 %
Wind
5 km/hWindrichtung: West
Luftdruck
1013 hPa
Messzeit: 13. Juli 2020, 3.00Datenquelle: METAR

Weitere Messstationen in der Nähe

Messstation Temperatur Entfernung
Minna 24 °C 105 km
Kano 23 °C 365 km
Port Harcourt - 445 km
Maradi - 496 km

Wind

Windrichtung Böen Mittelwind
° km/h km/h
1594522800 4.00 3.00 - 4.00 200° 10
1594526400 5.00 4.00 - 5.00
1594530000 6.00 5.00 - 6.00 300° 5
1594533600 7.00 6.00 - 7.00 350° 5
1594537200 8.00 7.00 - 8.00 340° 5
1594540800 9.00 8.00 - 9.00 260° 5
1594544400 10.00 9.00 - 10.00 290° 10
1594548000 11.00 10.00 - 11.00 300° 10
1594551600 12.00 11.00 - 12.00 300° 15
1594555200 13.00 12.00 - 13.00 270° 5
1594558800 14.00 13.00 - 14.00 260° 10
1594562400 15.00 14.00 - 15.00 250° 10
1594566000 16.00 15.00 - 16.00 290° 10
1594569600 17.00 16.00 - 17.00 280° 5
1594573200 18.00 17.00 - 18.00
1594576800 19.00 18.00 - 19.00 310° 5
1594580400 20.00 19.00 - 20.00 260° 15
1594584000 21.00 20.00 - 21.00 130° 5
1594587600 22.00 21.00 - 22.00 100° 5
1594591200 23.00 22.00 - 23.00 260° 5
1594594800 0.00 23.00 - 0.00
1594598400 1.00 0.00 - 1.00 100° 5
1594602000 2.00 1.00 - 2.00 130° 5
1594605600 3.00 2.00 - 3.00 270° 5

Ihre Wetterstation

Fehlt Ihre Wetterstation auf unserem Portal?

Schreiben Sie an network@meteonews.ch